createdAt,value
2019-05-14T00:00:32.196Z,2.67
2019-05-14T00:03:02.294Z,2.63
2019-05-14T00:05:32.209Z,2.80
2019-05-14T00:08:02.334Z,2.97
2019-05-14T00:10:32.133Z,3.03
2019-05-14T00:13:01.621Z,3.00
2019-05-14T00:15:32.266Z,2.90
2019-05-14T00:18:01.204Z,3.20
2019-05-14T00:20:31.418Z,3.13
2019-05-14T00:23:01.442Z,3.27
2019-05-14T00:25:31.277Z,3.20
2019-05-14T00:28:01.342Z,2.90
2019-05-14T00:30:31.607Z,3.17
2019-05-14T00:33:01.223Z,3.23
2019-05-14T00:35:32.010Z,3.23
2019-05-14T00:38:01.290Z,3.00
2019-05-14T00:40:31.392Z,3.23
2019-05-14T00:43:02.470Z,3.20
2019-05-14T00:45:31.268Z,3.40
2019-05-14T00:48:01.526Z,2.97
2019-05-14T00:50:31.691Z,3.37
2019-05-14T00:53:01.918Z,3.17
2019-05-14T00:55:31.589Z,2.87
2019-05-14T00:58:02.418Z,3.13
2019-05-14T01:00:31.312Z,3.23
2019-05-14T01:03:02.099Z,2.97
2019-05-14T01:05:32.150Z,3.43
2019-05-14T01:08:01.927Z,3.23
2019-05-14T01:10:31.414Z,3.23
2019-05-14T01:13:01.243Z,3.10
2019-05-14T01:15:32.080Z,3.10
2019-05-14T01:18:02.169Z,3.27
2019-05-14T01:20:31.932Z,3.17
2019-05-14T01:23:02.238Z,3.70
2019-05-14T01:25:31.804Z,3.33
2019-05-14T01:28:02.049Z,3.43
2019-05-14T01:30:31.973Z,3.53
2019-05-14T01:33:01.708Z,3.60
2019-05-14T01:35:31.638Z,3.30
2019-05-14T01:38:02.563Z,3.30
2019-05-14T01:40:31.572Z,3.67
2019-05-14T01:43:02.623Z,4.07
2019-05-14T01:45:31.800Z,3.40
2019-05-14T01:48:01.258Z,3.70
2019-05-14T01:50:32.014Z,3.20
2019-05-14T01:53:01.246Z,3.20
2019-05-14T01:55:32.301Z,3.30
2019-05-14T01:58:02.107Z,3.60
2019-05-14T02:00:31.429Z,3.00
2019-05-14T02:03:01.847Z,3.67
2019-05-14T02:05:31.083Z,3.50
2019-05-14T02:08:01.710Z,3.27
2019-05-14T02:10:31.527Z,3.47
2019-05-14T02:13:02.058Z,3.70
2019-05-14T02:15:39.626Z,3.10
2019-05-14T02:18:02.352Z,3.50
2019-05-14T02:20:32.171Z,3.57
2019-05-14T02:23:01.506Z,3.40
2019-05-14T02:25:32.135Z,3.90
2019-05-14T02:28:01.332Z,4.13
2019-05-14T02:30:45.844Z,3.60
2019-05-14T02:33:00.382Z,3.40
2019-05-14T02:35:29.757Z,3.20
2019-05-14T02:37:59.553Z,3.60
2019-05-14T02:40:29.427Z,3.23
2019-05-14T02:42:59.359Z,3.70
2019-05-14T02:45:30.272Z,3.77
2019-05-14T02:48:00.268Z,3.50
2019-05-14T02:50:29.643Z,3.57
2019-05-14T02:52:59.895Z,3.70
2019-05-14T02:55:29.929Z,3.70
2019-05-14T02:57:59.780Z,3.77
2019-05-14T03:00:30.010Z,3.60
2019-05-14T03:02:59.787Z,3.60
2019-05-14T03:05:29.471Z,3.40
2019-05-14T03:07:59.957Z,3.60
2019-05-14T03:10:30.222Z,4.47
2019-05-14T03:12:59.007Z,3.73
2019-05-14T03:15:29.117Z,4.07
2019-05-14T03:17:59.958Z,4.80
2019-05-14T03:20:28.913Z,4.40
2019-05-14T03:23:05.001Z,3.77
2019-05-14T03:25:30.083Z,4.50
2019-05-14T03:27:59.969Z,4.10
2019-05-14T03:30:32.357Z,12.80
2019-05-14T03:33:02.916Z,9.37
2019-05-14T03:35:40.200Z,5.30
2019-05-14T03:38:00.406Z,4.50
2019-05-14T03:40:29.389Z,4.83
2019-05-14T03:42:59.946Z,4.70
2019-05-14T03:45:29.938Z,4.87
2019-05-14T03:47:59.145Z,5.50
2019-05-14T03:50:29.714Z,4.77
2019-05-14T03:52:59.416Z,4.87
2019-05-14T03:55:29.269Z,4.17
2019-05-14T03:57:59.492Z,4.80
2019-05-14T04:00:49.906Z,4.03
2019-05-14T04:03:19.759Z,4.10
2019-05-14T04:05:49.270Z,4.23
2019-05-14T04:08:21.379Z,4.23
2019-05-14T04:10:53.769Z,4.30
2019-05-14T04:13:20.480Z,4.73
2019-05-14T04:15:49.985Z,5.27
2019-05-14T04:18:20.448Z,4.90
2019-05-14T04:20:50.425Z,4.20
2019-05-14T04:23:22.032Z,3.90
2019-05-14T04:25:52.753Z,4.00
2019-05-14T04:28:22.606Z,4.10
2019-05-14T04:30:54.944Z,4.80
2019-05-14T04:33:29.917Z,4.33
2019-05-14T04:35:59.932Z,4.33
2019-05-14T04:38:29.907Z,4.00
2019-05-14T04:40:59.855Z,3.90
2019-05-14T04:43:29.396Z,4.37
2019-05-14T04:45:59.127Z,4.40
2019-05-14T04:48:36.535Z,4.30
2019-05-14T04:51:00.515Z,4.20
2019-05-14T04:53:30.780Z,4.00
2019-05-14T04:56:00.105Z,4.20
2019-05-14T04:58:29.748Z,4.27
2019-05-14T05:01:00.571Z,4.07
2019-05-14T05:03:31.363Z,4.17
2019-05-14T05:05:58.908Z,3.60
2019-05-14T05:08:30.685Z,4.77
2019-05-14T05:11:00.108Z,4.07
2019-05-14T05:13:29.157Z,4.63
2019-05-14T05:15:59.437Z,4.60
2019-05-14T05:18:29.488Z,4.23
2019-05-14T05:20:58.330Z,4.87
2019-05-14T05:23:28.286Z,4.47
2019-05-14T05:25:58.536Z,4.07
2019-05-14T05:28:28.413Z,4.37
2019-05-14T05:30:58.506Z,4.60
2019-05-14T05:33:26.508Z,4.50
2019-05-14T05:35:54.721Z,4.30
2019-05-14T05:38:23.280Z,4.87
2019-05-14T05:40:51.807Z,4.43
2019-05-14T05:43:20.368Z,4.37
2019-05-14T05:45:48.896Z,4.03
2019-05-14T05:48:18.778Z,4.07
2019-05-14T05:50:48.470Z,4.43
2019-05-14T05:53:19.243Z,4.60
2019-05-14T05:55:48.477Z,4.57
2019-05-14T05:58:19.528Z,4.50
2019-05-14T06:00:49.539Z,4.03
2019-05-14T06:03:20.605Z,3.70
2019-05-14T06:05:49.086Z,3.60
2019-05-14T06:08:18.707Z,3.60
2019-05-14T06:10:48.785Z,3.27
2019-05-14T06:13:18.280Z,3.10
2019-05-14T06:15:49.423Z,2.90
2019-05-14T06:18:19.517Z,3.03
2019-05-14T06:20:49.154Z,2.90
2019-05-14T06:23:18.745Z,3.47
2019-05-14T06:25:48.898Z,2.90
2019-05-14T06:28:16.339Z,2.73
2019-05-14T06:30:44.896Z,2.40
2019-05-14T06:33:13.507Z,3.03
2019-05-14T06:35:42.078Z,2.73
2019-05-14T06:38:10.585Z,2.77
2019-05-14T06:40:39.636Z,2.50
2019-05-14T06:43:09.179Z,2.77
2019-05-14T06:45:38.854Z,2.47
2019-05-14T06:48:08.731Z,2.90
2019-05-14T06:50:39.149Z,3.00
2019-05-14T06:53:08.533Z,2.77
2019-05-14T06:55:38.686Z,3.13
2019-05-14T06:58:09.015Z,3.07
2019-05-14T07:00:39.193Z,3.63
2019-05-14T07:03:08.767Z,2.87
2019-05-14T07:05:38.956Z,2.90
2019-05-14T07:08:08.980Z,2.73
2019-05-14T07:10:39.281Z,3.07
2019-05-14T07:13:08.619Z,2.97
2019-05-14T07:15:38.467Z,2.67
2019-05-14T07:18:08.482Z,2.87
2019-05-14T07:20:38.938Z,2.87
2019-05-14T07:23:08.210Z,2.67
2019-05-14T07:25:39.111Z,3.07
2019-05-14T07:28:08.723Z,2.97
2019-05-14T07:30:39.381Z,3.13
2019-05-14T07:33:06.465Z,3.17
2019-05-14T07:35:34.693Z,2.77
2019-05-14T07:38:03.231Z,2.50
2019-05-14T07:40:31.787Z,2.70
2019-05-14T07:43:00.332Z,2.67
2019-05-14T07:45:28.892Z,3.00
2019-05-14T07:47:58.305Z,2.40
2019-05-14T07:50:29.006Z,2.73
2019-05-14T07:52:58.724Z,2.70
2019-05-14T07:55:28.745Z,3.10
2019-05-14T07:57:58.694Z,2.80
2019-05-14T08:00:28.550Z,2.80
2019-05-14T08:02:58.182Z,3.00
2019-05-14T08:05:28.789Z,2.90
2019-05-14T08:07:58.505Z,3.43
2019-05-14T08:10:28.854Z,3.13
2019-05-14T08:12:58.778Z,2.57
2019-05-14T08:15:27.964Z,2.93
2019-05-14T08:17:58.532Z,2.80
2019-05-14T08:20:28.603Z,2.70
2019-05-14T08:22:58.240Z,2.73
2019-05-14T08:25:28.332Z,2.80
2019-05-14T08:27:58.597Z,2.73
2019-05-14T08:30:28.324Z,2.70
2019-05-14T08:32:58.299Z,3.50
2019-05-14T08:35:28.927Z,3.00
2019-05-14T08:38:07.497Z,2.73
2019-05-14T08:40:28.577Z,2.60
2019-05-14T08:42:58.379Z,2.50
2019-05-14T08:45:28.341Z,2.57
2019-05-14T08:47:58.677Z,2.50
2019-05-14T08:50:28.086Z,2.70
2019-05-14T08:52:58.247Z,2.60
2019-05-14T08:55:26.643Z,2.17
2019-05-14T08:57:55.478Z,2.10
2019-05-14T09:00:24.038Z,2.60
2019-05-14T09:02:52.595Z,2.47
2019-05-14T09:05:21.131Z,2.57
2019-05-14T09:07:49.692Z,2.50
2019-05-14T09:10:19.271Z,2.80
2019-05-14T09:12:49.127Z,2.73
2019-05-14T09:15:18.591Z,2.40
2019-05-14T09:17:48.435Z,2.73
2019-05-14T09:20:18.683Z,2.37
2019-05-14T09:22:49.006Z,2.70
2019-05-14T09:25:18.939Z,2.60
2019-05-14T09:27:49.285Z,2.83
2019-05-14T09:30:18.626Z,3.37
2019-05-14T09:32:49.303Z,3.00
2019-05-14T09:35:18.830Z,2.70
2019-05-14T09:37:50.918Z,2.57
2019-05-14T09:40:19.518Z,2.70
2019-05-14T09:42:49.865Z,2.43
2019-05-14T09:45:18.886Z,2.60
2019-05-14T09:47:50.287Z,2.67
2019-05-14T09:50:22.261Z,2.40
2019-05-14T09:52:49.408Z,2.40
2019-05-14T09:55:18.285Z,2.50
2019-05-14T09:57:48.990Z,2.43
2019-05-14T10:00:18.698Z,2.33
2019-05-14T10:02:49.213Z,2.60
2019-05-14T10:05:19.009Z,2.63
2019-05-14T10:07:49.347Z,3.07
2019-05-14T10:10:19.594Z,2.60
2019-05-14T10:12:54.175Z,2.37
2019-05-14T10:15:18.670Z,2.30
2019-05-14T10:17:49.977Z,2.17
2019-05-14T10:20:35.623Z,2.37
2019-05-14T10:22:48.719Z,2.10
2019-05-14T10:25:18.226Z,2.30
2019-05-14T10:27:48.558Z,2.50
2019-05-14T10:30:18.181Z,2.27
2019-05-14T10:32:49.203Z,2.53
2019-05-14T10:35:19.166Z,2.20
2019-05-14T10:37:47.466Z,2.33
2019-05-14T10:40:18.383Z,2.20
2019-05-14T10:42:49.290Z,2.03
2019-05-14T10:45:18.640Z,2.40
2019-05-14T10:47:49.447Z,1.97
2019-05-14T10:50:18.276Z,2.00
2019-05-14T10:52:48.853Z,2.17
2019-05-14T10:55:18.582Z,2.27
2019-05-14T10:57:47.019Z,1.70
2019-05-14T11:00:15.713Z,1.90
2019-05-14T11:02:44.291Z,1.90
2019-05-14T11:05:13.151Z,2.23
2019-05-14T11:07:41.960Z,2.17
2019-05-14T11:10:10.983Z,2.53
2019-05-14T11:12:39.900Z,1.93
2019-05-14T11:15:09.187Z,2.10
2019-05-14T11:17:40.444Z,2.10
2019-05-14T11:20:08.344Z,2.17
2019-05-14T11:22:36.878Z,2.27
2019-05-14T11:25:09.169Z,1.83
2019-05-14T11:27:38.801Z,2.57
2019-05-14T11:30:09.119Z,2.20
2019-05-14T11:32:38.511Z,2.33
2019-05-14T11:35:12.937Z,2.03
2019-05-14T11:37:41.368Z,1.83
2019-05-14T11:40:09.079Z,2.30
2019-05-14T11:42:38.793Z,2.20
2019-05-14T11:45:09.116Z,2.40
2019-05-14T11:47:38.103Z,2.00
2019-05-14T11:50:09.788Z,2.00
2019-05-14T11:52:38.794Z,2.10
2019-05-14T11:55:09.149Z,2.40
2019-05-14T11:57:37.840Z,1.87
2019-05-14T12:00:09.163Z,1.70
2019-05-14T12:02:38.434Z,2.00
2019-05-14T12:05:08.994Z,2.13
2019-05-14T12:07:38.819Z,2.20
2019-05-14T12:10:09.260Z,1.70
2019-05-14T12:12:37.948Z,2.10
2019-05-14T12:15:08.889Z,2.00
2019-05-14T12:17:39.491Z,1.80
2019-05-14T12:20:09.403Z,1.97
2019-05-14T12:22:39.351Z,1.80
2019-05-14T12:25:08.747Z,1.50
2019-05-14T12:27:38.712Z,1.80
2019-05-14T12:30:09.966Z,1.77
2019-05-14T12:32:39.503Z,1.93
2019-05-14T12:35:08.821Z,1.87
2019-05-14T12:37:38.707Z,1.60
2019-05-14T12:40:08.953Z,1.60
2019-05-14T12:42:39.387Z,1.50
2019-05-14T12:45:11.280Z,2.10
2019-05-14T12:47:39.888Z,1.90
2019-05-14T12:50:09.510Z,1.77
2019-05-14T12:52:38.909Z,1.77
2019-05-14T12:55:09.264Z,2.10
2019-05-14T12:57:39.510Z,1.70
2019-05-14T13:00:09.888Z,1.90
2019-05-14T13:02:38.497Z,2.23
2019-05-14T13:05:09.063Z,2.23
2019-05-14T13:07:41.469Z,2.60
2019-05-14T13:10:09.236Z,1.70
2019-05-14T13:12:39.156Z,1.80
2019-05-14T13:15:09.528Z,2.00
2019-05-14T13:17:38.859Z,1.90
2019-05-14T13:20:13.777Z,2.00
2019-05-14T13:22:45.679Z,1.90
2019-05-14T13:25:11.059Z,1.83
2019-05-14T13:27:39.995Z,2.20
2019-05-14T13:30:10.180Z,2.03
2019-05-14T13:32:39.706Z,1.77
2019-05-14T13:35:13.161Z,1.90
2019-05-14T13:37:39.829Z,1.80
2019-05-14T13:40:09.408Z,1.80
2019-05-14T13:42:39.921Z,1.60
2019-05-14T13:45:10.219Z,1.83
2019-05-14T13:47:39.111Z,1.80
2019-05-14T13:50:08.743Z,2.00
2019-05-14T13:52:40.397Z,1.90
2019-05-14T13:55:09.580Z,1.90
2019-05-14T13:57:39.916Z,2.20
2019-05-14T14:00:11.906Z,1.93
2019-05-14T14:02:39.759Z,1.80
2019-05-14T14:05:09.154Z,2.30
2019-05-14T14:07:39.622Z,2.20
2019-05-14T14:10:08.977Z,1.50
2019-05-14T14:12:40.276Z,1.73
2019-05-14T14:15:09.882Z,1.57
2019-05-14T14:17:39.255Z,1.63
2019-05-14T14:20:08.636Z,1.60
2019-05-14T14:22:39.925Z,1.70
2019-05-14T14:25:09.338Z,1.30
2019-05-14T14:27:40.605Z,1.50
2019-05-14T14:30:09.593Z,1.50
2019-05-14T14:32:40.795Z,1.80
2019-05-14T14:35:08.905Z,1.80
2019-05-14T14:37:39.647Z,1.60
2019-05-14T14:40:09.905Z,2.20
2019-05-14T14:42:40.030Z,2.40
2019-05-14T14:45:09.396Z,1.90
2019-05-14T14:47:39.482Z,1.87
2019-05-14T14:50:09.526Z,1.97
2019-05-14T14:52:38.083Z,2.10
2019-05-14T14:55:07.061Z,2.23
2019-05-14T14:57:35.958Z,2.10
2019-05-14T15:00:09.611Z,2.07
2019-05-14T15:02:40.752Z,1.97
2019-05-14T15:05:13.442Z,2.00
2019-05-14T15:07:40.598Z,1.90
2019-05-14T15:10:09.257Z,1.70
2019-05-14T15:12:39.883Z,1.80
2019-05-14T15:15:08.155Z,1.63
2019-05-14T15:17:39.322Z,1.80
2019-05-14T15:20:09.922Z,1.90
2019-05-14T15:22:37.557Z,2.77
2019-05-14T15:25:09.082Z,1.80
2019-05-14T15:27:38.553Z,1.60
2019-05-14T15:30:08.413Z,1.57
2019-05-14T15:32:36.985Z,1.73
2019-05-14T15:35:10.587Z,1.43
2019-05-14T15:37:42.259Z,1.60
2019-05-14T15:40:09.286Z,1.90
2019-05-14T15:42:39.428Z,2.00
2019-05-14T15:45:09.335Z,1.90
2019-05-14T15:47:38.989Z,1.70
2019-05-14T15:50:09.301Z,1.97
2019-05-14T15:52:39.252Z,1.87
2019-05-14T15:55:09.837Z,1.93
2019-05-14T15:57:39.798Z,1.80
2019-05-14T16:00:09.837Z,1.50
2019-05-14T16:02:39.667Z,1.60
2019-05-14T16:05:10.138Z,1.70
2019-05-14T16:07:39.451Z,1.97
2019-05-14T16:10:08.882Z,1.60
2019-05-14T16:12:39.778Z,2.00
2019-05-14T16:15:08.659Z,1.83
2019-05-14T16:17:48.165Z,1.93
2019-05-14T16:20:08.942Z,1.70
2019-05-14T16:22:39.812Z,2.20
2019-05-14T16:25:09.098Z,1.73
2019-05-14T16:27:39.658Z,2.10
2019-05-14T16:30:10.024Z,1.80
2019-05-14T16:32:39.551Z,1.70
2019-05-14T16:35:09.069Z,1.80
2019-05-14T16:37:39.101Z,1.70
2019-05-14T16:40:09.686Z,1.70
2019-05-14T16:42:39.623Z,1.57
2019-05-14T16:45:09.034Z,1.50
2019-05-14T16:47:39.817Z,1.53
2019-05-14T16:50:09.555Z,2.10
2019-05-14T16:52:42.461Z,1.70
2019-05-14T16:55:23.079Z,1.90
2019-05-14T16:57:38.895Z,1.87
2019-05-14T17:00:09.887Z,2.30
2019-05-14T17:02:38.596Z,2.10
2019-05-14T17:05:09.259Z,2.00
2019-05-14T17:07:38.545Z,1.80
2019-05-14T17:10:09.195Z,1.60
2019-05-14T17:12:49.593Z,1.83
2019-05-14T17:15:09.660Z,2.07
2019-05-14T17:17:38.787Z,2.20
2019-05-14T17:20:08.521Z,2.63
2019-05-14T17:22:39.756Z,2.20
2019-05-14T17:25:09.432Z,2.10
2019-05-14T17:27:39.559Z,1.83
2019-05-14T17:30:08.900Z,1.93
2019-05-14T17:32:39.100Z,2.33
2019-05-14T17:35:08.278Z,2.10
2019-05-14T17:37:39.349Z,2.73
2019-05-14T17:40:09.369Z,2.57
2019-05-14T17:42:39.399Z,2.57
2019-05-14T17:45:09.848Z,2.00
2019-05-14T17:47:39.087Z,2.20
2019-05-14T17:50:08.880Z,2.30
2019-05-14T17:52:43.560Z,2.57
2019-05-14T17:55:12.036Z,1.90
2019-05-14T17:57:46.440Z,2.20
2019-05-14T18:00:09.689Z,2.40
2019-05-14T18:02:38.439Z,2.40
2019-05-14T18:05:09.388Z,2.60
2019-05-14T18:07:36.919Z,2.50
2019-05-14T18:10:08.889Z,2.27
2019-05-14T18:12:39.667Z,2.60
2019-05-14T18:15:08.718Z,2.43
2019-05-14T18:17:39.250Z,2.03
2019-05-14T18:20:08.592Z,2.20
2019-05-14T18:22:42.065Z,2.50
2019-05-14T18:25:07.759Z,2.60
2019-05-14T18:27:39.024Z,2.30
2019-05-14T18:30:09.171Z,2.20
2019-05-14T18:32:37.388Z,2.00
2019-05-14T18:35:06.371Z,2.50
2019-05-14T18:37:34.907Z,2.13
2019-05-14T18:40:05.063Z,2.40
2019-05-14T18:42:33.599Z,3.47
2019-05-14T18:45:02.223Z,3.10
2019-05-14T18:47:30.796Z,3.27
2019-05-14T18:49:59.651Z,2.80
2019-05-14T18:52:29.593Z,2.33
2019-05-14T18:54:59.189Z,2.63
2019-05-14T18:57:28.700Z,2.60
2019-05-14T18:59:57.078Z,2.63
2019-05-14T19:02:25.746Z,2.67
2019-05-14T19:04:54.049Z,2.80
2019-05-14T19:07:22.580Z,2.73
2019-05-14T19:09:51.140Z,2.40
2019-05-14T19:12:19.748Z,2.40
2019-05-14T19:14:49.235Z,2.83
2019-05-14T19:17:18.696Z,3.00
2019-05-14T19:19:48.221Z,2.83
2019-05-14T19:22:16.923Z,2.83
2019-05-14T19:24:45.484Z,2.60
2019-05-14T19:27:14.015Z,2.70
2019-05-14T19:29:42.572Z,2.70
2019-05-14T19:32:11.099Z,2.87
2019-05-14T19:34:39.727Z,2.80
2019-05-14T19:37:08.458Z,2.97
2019-05-14T19:39:38.638Z,3.30
2019-05-14T19:42:08.604Z,2.97
2019-05-14T19:44:37.443Z,2.77
2019-05-14T19:47:05.983Z,2.60
2019-05-14T19:49:34.504Z,3.10
2019-05-14T19:52:03.099Z,2.80
2019-05-14T19:54:31.668Z,3.00
2019-05-14T19:57:01.010Z,2.60
2019-05-14T19:59:29.629Z,2.90
2019-05-14T20:01:58.953Z,3.00
2019-05-14T20:04:29.162Z,2.87
2019-05-14T20:06:57.827Z,2.60
2019-05-14T20:09:28.092Z,3.13
2019-05-14T20:11:58.140Z,3.00
2019-05-14T20:14:28.678Z,3.13
2019-05-14T20:16:58.328Z,3.20
2019-05-14T20:19:28.652Z,3.03
2019-05-14T20:21:58.778Z,2.87
2019-05-14T20:24:28.302Z,2.80
2019-05-14T20:27:05.758Z,2.93
2019-05-14T20:29:27.156Z,2.93
2019-05-14T20:31:55.682Z,3.27
2019-05-14T20:34:24.242Z,3.03
2019-05-14T20:36:52.771Z,2.90
2019-05-14T20:39:21.416Z,3.13
2019-05-14T20:41:49.954Z,3.10
2019-05-14T20:44:19.066Z,2.80
2019-05-14T20:46:48.927Z,3.13
2019-05-14T20:49:19.034Z,2.90
2019-05-14T20:51:49.386Z,3.00
2019-05-14T20:54:18.482Z,2.80
2019-05-14T20:56:49.266Z,3.10
2019-05-14T20:59:19.175Z,3.07
2019-05-14T21:01:47.513Z,3.40
2019-05-14T21:04:18.694Z,3.67
2019-05-14T21:06:48.487Z,3.30
2019-05-14T21:09:19.034Z,3.17
2019-05-14T21:11:49.053Z,3.03
2019-05-14T21:14:18.256Z,2.93
2019-05-14T21:16:48.833Z,3.10
2019-05-14T21:19:17.164Z,3.27
2019-05-14T21:21:45.725Z,3.30
2019-05-14T21:24:14.271Z,2.80
2019-05-14T21:26:42.820Z,3.17
2019-05-14T21:29:11.356Z,3.47
2019-05-14T21:31:39.920Z,3.30
2019-05-14T21:34:08.447Z,3.30
2019-05-14T21:36:39.054Z,3.07
2019-05-14T21:39:08.107Z,2.87
2019-05-14T21:41:38.713Z,2.93
2019-05-14T21:44:08.518Z,3.20
2019-05-14T21:46:39.828Z,3.00
2019-05-14T21:49:07.651Z,3.10
2019-05-14T21:51:39.238Z,3.17
2019-05-14T21:54:09.422Z,3.10
2019-05-14T21:56:38.657Z,3.17
2019-05-14T21:59:09.518Z,2.93
2019-05-14T22:01:39.315Z,3.40
2019-05-14T22:04:08.741Z,3.33
2019-05-14T22:06:41.141Z,3.40
2019-05-14T22:09:08.893Z,3.40
2019-05-14T22:11:39.369Z,2.83
2019-05-14T22:14:07.934Z,2.90
2019-05-14T22:16:38.080Z,3.20
2019-05-14T22:19:08.493Z,3.70
2019-05-14T22:21:38.610Z,4.13
2019-05-14T22:24:07.563Z,3.97
2019-05-14T22:26:38.625Z,3.10
2019-05-14T22:29:08.153Z,3.20
2019-05-14T22:31:38.539Z,3.23
2019-05-14T22:34:08.721Z,3.57
2019-05-14T22:36:38.619Z,3.93
2019-05-14T22:39:07.064Z,3.63
2019-05-14T22:41:38.058Z,3.13
2019-05-14T22:44:05.805Z,3.13
2019-05-14T22:46:34.368Z,2.80
2019-05-14T22:49:02.895Z,2.70
2019-05-14T22:51:33.205Z,2.47
2019-05-14T22:54:01.788Z,2.90
2019-05-14T22:56:30.050Z,2.73
2019-05-14T22:58:58.551Z,3.03
2019-05-14T23:01:28.842Z,2.90
2019-05-14T23:03:59.461Z,2.90
2019-05-14T23:06:28.142Z,2.80
2019-05-14T23:08:58.115Z,2.80
2019-05-14T23:11:28.908Z,2.87
2019-05-14T23:13:58.217Z,2.90
2019-05-14T23:16:36.392Z,2.90
2019-05-14T23:18:58.325Z,2.70
2019-05-14T23:21:28.370Z,2.70
2019-05-14T23:23:58.248Z,2.60
2019-05-14T23:26:28.575Z,2.70
2019-05-14T23:28:58.790Z,2.60
2019-05-14T23:31:28.854Z,2.50
2019-05-14T23:33:58.594Z,2.60
2019-05-14T23:36:29.158Z,2.70
2019-05-14T23:38:59.133Z,2.93
2019-05-14T23:41:28.643Z,3.00
2019-05-14T23:43:57.369Z,3.17
2019-05-14T23:46:25.899Z,2.63
2019-05-14T23:48:54.465Z,2.70
2019-05-14T23:51:22.994Z,2.80
2019-05-14T23:53:51.223Z,3.07
2019-05-14T23:56:19.772Z,3.00
2019-05-14T23:58:55.724Z,2.90
